Time;durP1;ratioP1;P1;durP2;ratioP2;P2;SDS_P1;SDS_P2;PMS_P1;PMS_P2;Temp;Humidity;BMP_temperature;BMP_pressure;BME280_temperature;BME280_humidity;BME280_pressure;Samples;Min_cycle;Max_cycle;Signal;HPM_P1;HPM_P2
2024/02/29 00:00:06;;;;;;;65.13;45.70;;;5.20;99.90;;;;;;5157702;27;20444;-77
2024/02/29 00:02:35;;;;;;;70.00;46.33;;;5.20;99.90;;;;;;5175999;27;20918;-77
2024/02/29 00:05:03;;;;;;;65.87;47.43;;;5.20;99.90;;;;;;5157614;27;20543;-77
2024/02/29 00:07:33;;;;;;;59.90;44.00;;;5.20;99.90;;;;;;5157563;27;20551;-77
2024/02/29 00:10:02;;;;;;;57.67;42.83;;;5.20;99.90;;;;;;5176070;27;20432;-76
2024/02/29 00:12:31;;;;;;;59.73;45.63;;;5.20;99.90;;;;;;5157651;27;20447;-77
2024/02/29 00:14:59;;;;;;;60.07;44.43;;;5.20;99.90;;;;;;5158040;27;20465;-77
2024/02/29 00:17:28;;;;;;;61.20;46.93;;;5.30;99.90;;;;;;5158246;27;21072;-77
2024/02/29 00:19:56;;;;;;;58.00;43.10;;;5.30;99.90;;;;;;5177783;27;20489;-77
2024/02/29 00:22:24;;;;;;;59.00;44.40;;;5.30;99.90;;;;;;5177278;27;20424;-77
2024/02/29 00:24:55;;;;;;;59.87;43.10;;;5.30;99.90;;;;;;5159484;27;21062;-77
2024/02/29 00:27:24;;;;;;;63.50;46.23;;;5.30;99.90;;;;;;5159215;27;20468;-77
2024/02/29 00:29:52;;;;;;;58.87;42.83;;;5.30;99.90;;;;;;5159497;27;20945;-77
2024/02/29 00:32:21;;;;;;;55.33;42.43;;;5.30;99.90;;;;;;5158998;27;20972;-77
2024/02/29 00:34:49;;;;;;;58.37;41.70;;;5.30;99.90;;;;;;5158853;27;20448;-77
2024/02/29 00:37:17;;;;;;;64.00;45.07;;;5.20;99.90;;;;;;5177438;27;20460;-77
2024/02/29 00:39:47;;;;;;;58.10;43.90;;;5.20;99.90;;;;;;5158745;27;20437;-77
2024/02/29 00:42:17;;;;;;;62.80;43.73;;;5.20;99.90;;;;;;5159075;27;20447;-77
2024/02/29 00:44:46;;;;;;;57.97;42.80;;;5.20;99.90;;;;;;5159703;27;20441;-77
2024/02/29 00:47:14;;;;;;;58.80;43.43;;;5.20;99.90;;;;;;5180318;27;20452;-77
2024/02/29 00:49:42;;;;;;;56.73;41.97;;;5.10;99.90;;;;;;5163887;27;20455;-77
2024/02/29 00:52:11;;;;;;;54.40;40.40;;;5.10;99.90;;;;;;5163564;27;20456;-76
2024/02/29 00:54:39;;;;;;;52.47;39.67;;;5.10;99.90;;;;;;5163003;27;20464;-77
2024/02/29 00:57:08;;;;;;;57.23;41.70;;;5.10;99.90;;;;;;5182352;27;20990;-77
2024/02/29 00:59:37;;;;;;;56.17;40.80;;;5.10;99.90;;;;;;5164402;27;20441;-77
2024/02/29 01:02:06;;;;;;;53.13;39.23;;;5.10;99.90;;;;;;5163567;27;20544;-77
2024/02/29 01:04:35;;;;;;;52.80;38.60;;;5.00;99.90;;;;;;5181552;27;20909;-77
2024/02/29 01:07:03;;;;;;;55.47;38.57;;;5.00;99.90;;;;;;5161507;27;20468;-77
2024/02/29 01:09:32;;;;;;;56.80;41.70;;;5.00;99.90;;;;;;5180544;27;20440;-77
2024/02/29 01:12:00;;;;;;;56.83;38.97;;;5.00;99.90;;;;;;5180285;27;20432;-76
2024/02/29 01:14:29;;;;;;;57.43;41.80;;;5.00;99.90;;;;;;5180332;27;20485;-77
2024/02/29 01:16:59;;;;;;;55.07;39.13;;;4.90;99.90;;;;;;5160898;27;21037;-77
2024/02/29 01:19:27;;;;;;;57.73;41.67;;;4.90;99.90;;;;;;5161644;27;21041;-77
2024/02/29 01:21:55;;;;;;;54.77;39.20;;;4.90;99.90;;;;;;5160531;27;20447;-77
2024/02/29 01:24:24;;;;;;;55.57;38.50;;;4.90;99.90;;;;;;5160671;27;20440;-77
2024/02/29 01:26:53;;;;;;;51.93;38.37;;;4.90;99.90;;;;;;5160090;27;20504;-77
2024/02/29 01:29:22;;;;;;;52.60;39.03;;;4.90;99.90;;;;;;5179252;27;20766;-77
2024/02/29 01:31:50;;;;;;;53.83;39.93;;;4.80;99.90;;;;;;5160175;27;20437;-76
2024/02/29 01:34:20;;;;;;;47.10;35.60;;;4.80;99.90;;;;;;5160106;27;20503;-77
2024/02/29 01:36:49;;;;;;;47.63;35.87;;;4.80;99.90;;;;;;5179120;27;20467;-77
2024/02/29 01:39:18;;;;;;;46.10;32.93;;;4.80;99.90;;;;;;5159900;27;20447;-77
2024/02/29 01:41:46;;;;;;;48.57;34.20;;;4.80;99.90;;;;;;5159968;27;20433;-77
2024/02/29 01:44:15;;;;;;;49.57;37.67;;;4.70;99.90;;;;;;5159893;27;20436;-76
2024/02/29 01:46:43;;;;;;;53.40;39.00;;;4.70;99.90;;;;;;5178376;27;20497;-77
2024/02/29 01:49:13;;;;;;;49.60;35.57;;;4.70;99.90;;;;;;5159710;27;20946;-76
2024/02/29 01:51:45;;;;;;;45.23;33.17;;;4.70;99.90;;;;;;5178344;27;20877;-76
2024/02/29 01:54:14;;;;;;;44.93;33.07;;;4.70;99.90;;;;;;5178577;27;20775;-77
2024/02/29 01:56:42;;;;;;;44.43;33.63;;;4.70;99.90;;;;;;5159001;27;20509;-76
2024/02/29 01:59:11;;;;;;;47.47;34.20;;;4.60;99.90;;;;;;5158626;27;20537;-76
2024/02/29 02:01:39;;;;;;;43.57;33.20;;;4.60;99.90;;;;;;5181795;27;20485;-77
2024/02/29 02:04:08;;;;;;;43.07;34.10;;;4.60;99.90;;;;;;5160212;27;20455;-77
2024/02/29 02:06:37;;;;;;;44.77;32.10;;;4.60;99.90;;;;;;5159924;27;20439;-76
2024/02/29 02:09:07;;;;;;;44.10;33.00;;;4.60;99.90;;;;;;5178477;27;20447;-76
2024/02/29 02:11:36;;;;;;;44.83;33.60;;;4.50;99.90;;;;;;5159645;27;20848;-77
2024/02/29 02:14:04;;;;;;;41.50;30.07;;;4.50;99.90;;;;;;5159538;27;20449;-77
2024/02/29 02:16:33;;;;;;;44.03;32.70;;;4.50;99.90;;;;;;5159271;27;20456;-76
2024/02/29 02:19:01;;;;;;;38.30;27.80;;;4.50;99.90;;;;;;5159157;27;20449;-76
2024/02/29 02:21:31;;;;;;;42.53;31.00;;;4.50;99.90;;;;;;5159216;27;20432;-76
2024/02/29 02:23:59;;;;;;;39.40;28.17;;;4.50;99.90;;;;;;5159245;27;20493;-76
2024/02/29 02:26:27;;;;;;;40.10;29.33;;;4.50;99.90;;;;;;5158899;27;20445;-77
2024/02/29 02:28:56;;;;;;;38.57;29.13;;;4.50;99.90;;;;;;5177699;27;20865;-76
2024/02/29 02:31:24;;;;;;;38.63;30.30;;;4.40;99.90;;;;;;5158990;27;20441;-76
2024/02/29 02:33:53;;;;;;;36.57;28.60;;;4.40;99.90;;;;;;5158750;27;20451;-76
2024/02/29 02:36:22;;;;;;;35.77;28.30;;;4.40;99.90;;;;;;5158779;27;20490;-75
2024/02/29 02:38:52;;;;;;;32.77;24.63;;;4.40;99.90;;;;;;5158627;27;20457;-76
2024/02/29 02:41:21;;;;;;;35.10;25.60;;;4.40;99.90;;;;;;5159365;27;20812;-76
2024/02/29 02:43:50;;;;;;;35.47;27.83;;;4.40;99.90;;;;;;5158684;27;20531;-76
2024/02/29 02:46:19;;;;;;;32.13;25.33;;;4.40;99.90;;;;;;5158593;27;20445;-76
2024/02/29 02:48:47;;;;;;;32.23;24.80;;;4.30;99.90;;;;;;5158394;27;20468;-76
2024/02/29 02:51:16;;;;;;;33.10;24.57;;;4.40;99.90;;;;;;5177380;27;20520;-76
2024/02/29 02:53:44;;;;;;;30.63;23.00;;;4.30;99.90;;;;;;5177124;27;20790;-76
2024/02/29 02:56:14;;;;;;;31.57;24.27;;;4.30;99.90;;;;;;5176976;27;20551;-76
2024/02/29 02:58:42;;;;;;;28.97;22.83;;;4.30;99.90;;;;;;5176837;27;20509;-76
2024/02/29 03:01:11;;;;;;;28.03;23.03;;;4.30;99.90;;;;;;5177014;27;20910;-76
2024/02/29 03:03:39;;;;;;;31.13;23.00;;;4.30;99.90;;;;;;5158194;27;20531;-75
2024/02/29 03:06:09;;;;;;;30.60;23.53;;;4.30;99.90;;;;;;5158472;27;20793;-76
2024/02/29 03:08:37;;;;;;;28.10;22.60;;;4.30;99.90;;;;;;5157874;27;20468;-76
2024/02/29 03:11:05;;;;;;;27.73;21.53;;;4.30;99.90;;;;;;5158086;27;20497;-76
2024/02/29 03:13:36;;;;;;;28.00;21.33;;;4.20;99.90;;;;;;5158208;27;20444;-76
2024/02/29 03:16:05;;;;;;;26.57;21.73;;;4.20;99.90;;;;;;5158289;27;20433;-77
2024/02/29 03:18:33;;;;;;;27.97;23.00;;;4.20;99.90;;;;;;5157922;27;20452;-76
2024/02/29 03:21:03;;;;;;;25.90;20.43;;;4.20;99.90;;;;;;5158087;27;20455;-75
2024/02/29 03:23:31;;;;;;;25.80;19.63;;;4.20;99.90;;;;;;5157855;27;20447;-76
2024/02/29 03:26:00;;;;;;;25.30;19.47;;;4.20;99.90;;;;;;5176580;27;20928;-76
2024/02/29 03:28:28;;;;;;;25.27;19.90;;;4.20;99.90;;;;;;5157686;27;20857;-76
2024/02/29 03:30:59;;;;;;;23.60;20.57;;;4.20;99.90;;;;;;5157999;27;20455;-76
2024/02/29 03:33:28;;;;;;;25.47;20.23;;;4.20;99.90;;;;;;5157707;27;20809;-76
2024/02/29 03:35:56;;;;;;;27.53;20.57;;;4.20;99.90;;;;;;5157599;27;20472;-76
2024/02/29 03:38:25;;;;;;;23.77;17.77;;;4.10;99.90;;;;;;5157567;27;20555;-76
2024/02/29 03:40:53;;;;;;;23.30;18.07;;;4.10;99.90;;;;;;5176477;27;20918;-76
2024/02/29 03:43:21;;;;;;;23.47;17.93;;;4.10;99.90;;;;;;5157442;27;20445;-76
2024/02/29 03:45:50;;;;;;;21.90;17.40;;;4.10;99.90;;;;;;5157509;27;20443;-76
2024/02/29 03:48:20;;;;;;;21.97;17.40;;;4.10;99.90;;;;;;5176109;27;20444;-76
2024/02/29 03:50:48;;;;;;;21.70;18.43;;;4.10;99.90;;;;;;5157424;27;20448;-76
2024/02/29 03:53:16;;;;;;;21.03;17.10;;;4.10;99.90;;;;;;5157284;27;20945;-76
2024/02/29 03:55:47;;;;;;;22.30;17.00;;;4.10;99.90;;;;;;5175981;27;20424;-75
2024/02/29 03:58:15;;;;;;;22.83;18.50;;;4.10;99.90;;;;;;5175815;27;20479;-75
2024/02/29 04:00:44;;;;;;;20.73;17.00;;;4.10;99.90;;;;;;5175892;27;20428;-76
2024/02/29 04:03:12;;;;;;;21.13;18.07;;;4.10;99.90;;;;;;5157162;27;20940;-77
2024/02/29 04:05:43;;;;;;;26.93;20.00;;;4.10;99.90;;;;;;5157303;27;20441;-76
2024/02/29 04:08:12;;;;;;;21.63;16.13;;;4.10;99.90;;;;;;5157075;27;20464;-76
2024/02/29 04:10:41;;;;;;;20.57;16.10;;;4.10;99.90;;;;;;5157067;27;20938;-76
2024/02/29 04:13:10;;;;;;;20.83;17.77;;;4.10;99.90;;;;;;5157049;27;20492;-76
2024/02/29 04:15:39;;;;;;;23.00;18.80;;;4.00;99.90;;;;;;5157142;27;20463;-76
2024/02/29 04:18:07;;;;;;;19.83;17.10;;;4.10;99.90;;;;;;5157452;27;20473;-76
2024/02/29 04:20:35;;;;;;;19.10;16.70;;;4.10;99.90;;;;;;5176677;27;20475;-77
2024/02/29 04:23:05;;;;;;;19.53;15.03;;;4.10;99.90;;;;;;5161449;27;20436;-77
2024/02/29 04:25:34;;;;;;;19.53;16.43;;;4.10;99.90;;;;;;5161242;27;21013;-76
2024/02/29 04:28:03;;;;;;;22.73;17.53;;;4.10;99.90;;;;;;5179892;27;20960;-76
2024/02/29 04:30:31;;;;;;;19.70;16.50;;;4.00;99.90;;;;;;5161144;27;20540;-76
2024/02/29 04:33:00;;;;;;;22.00;17.30;;;4.00;99.90;;;;;;5161444;27;20444;-76
2024/02/29 04:35:29;;;;;;;18.90;15.60;;;4.00;99.90;;;;;;5179783;27;20433;-76
2024/02/29 04:37:57;;;;;;;20.47;18.00;;;4.00;99.90;;;;;;5161276;27;20475;-76
2024/02/29 04:40:29;;;;;;;19.27;16.50;;;4.00;99.90;;;;;;5161311;27;20447;-76
2024/02/29 04:42:57;;;;;;;21.37;16.80;;;4.00;99.90;;;;;;5160872;27;20447;-76
2024/02/29 04:45:26;;;;;;;16.93;15.03;;;4.00;99.90;;;;;;5160895;27;20531;-76
2024/02/29 04:47:55;;;;;;;18.90;16.20;;;4.00;99.90;;;;;;5160814;27;20459;-76
2024/02/29 04:50:23;;;;;;;19.20;16.23;;;4.00;99.90;;;;;;5160852;27;20446;-76
2024/02/29 04:52:52;;;;;;;21.90;16.60;;;4.00;99.90;;;;;;5160726;27;20443;-76
2024/02/29 04:55:20;;;;;;;17.47;15.40;;;4.00;99.90;;;;;;5160977;27;20440;-76
2024/02/29 04:57:51;;;;;;;19.03;16.20;;;4.00;99.90;;;;;;5160534;27;21017;-76
2024/02/29 05:00:19;;;;;;;18.97;16.20;;;4.00;99.90;;;;;;5179797;27;20546;-76
2024/02/29 05:02:48;;;;;;;18.80;15.53;;;4.00;99.90;;;;;;5160554;27;20480;-76
2024/02/29 05:05:16;;;;;;;20.37;16.60;;;4.00;99.90;;;;;;5160557;27;20523;-76
2024/02/29 05:07:46;;;;;;;18.90;15.07;;;4.00;99.90;;;;;;5179092;27;20452;-76
2024/02/29 05:10:14;;;;;;;17.07;13.20;;;4.10;99.90;;;;;;5160512;27;20446;-76
2024/02/29 05:12:43;;;;;;;18.97;16.03;;;4.10;99.90;;;;;;5160379;27;20497;-76
2024/02/29 05:15:15;;;;;;;18.10;14.83;;;4.10;99.90;;;;;;5161212;27;20435;-76
2024/02/29 05:17:43;;;;;;;18.10;15.10;;;4.00;99.90;;;;;;5160085;27;20464;-76
2024/02/29 05:20:12;;;;;;;20.80;16.80;;;4.10;99.90;;;;;;5160187;27;20440;-76
2024/02/29 05:22:40;;;;;;;18.97;15.10;;;4.10;99.90;;;;;;5160193;27;20453;-76
2024/02/29 05:25:09;;;;;;;20.33;17.87;;;4.10;99.90;;;;;;5160196;27;20440;-76
2024/02/29 05:27:38;;;;;;;20.07;16.37;;;4.10;99.90;;;;;;5160011;27;21074;-76
2024/02/29 05:30:08;;;;;;;19.47;15.10;;;4.10;99.90;;;;;;5160119;27;20492;-76
2024/02/29 05:32:38;;;;;;;21.90;17.50;;;4.10;99.90;;;;;;5159722;27;20449;-76
2024/02/29 05:35:08;;;;;;;18.83;15.90;;;4.10;99.90;;;;;;5159951;27;20451;-76
2024/02/29 05:37:36;;;;;;;17.93;15.93;;;4.10;99.90;;;;;;5159869;27;20468;-77
2024/02/29 05:40:07;;;;;;;18.00;15.30;;;4.10;99.90;;;;;;5159918;27;20945;-76
2024/02/29 05:42:35;;;;;;;20.00;14.77;;;4.10;99.90;;;;;;5159961;27;20482;-76
2024/02/29 05:45:06;;;;;;;20.20;16.47;;;4.10;99.90;;;;;;5159740;27;21025;-76
2024/02/29 05:47:34;;;;;;;19.40;16.77;;;4.10;99.90;;;;;;5159755;27;20472;-76
2024/02/29 05:50:05;;;;;;;18.40;14.53;;;4.10;99.90;;;;;;5159675;27;20494;-76
2024/02/29 05:52:33;;;;;;;20.20;15.93;;;4.10;99.90;;;;;;5159589;27;20535;-76
2024/02/29 05:55:01;;;;;;;19.63;16.33;;;4.10;99.90;;;;;;5159622;27;20783;-75
2024/02/29 05:57:31;;;;;;;21.13;16.27;;;4.10;99.90;;;;;;5159784;27;20825;-77
2024/02/29 06:00:01;;;;;;;19.00;15.93;;;4.10;99.90;;;;;;5160239;27;20433;-76
2024/02/29 06:02:37;;;;;;;20.00;17.80;;;4.20;99.90;;;;;;5178341;27;20416;-76
2024/02/29 06:05:08;;;;;;;21.00;15.23;;;4.20;99.90;;;;;;5159413;27;20445;-77
2024/02/29 06:07:37;;;;;;;17.50;15.60;;;4.20;99.90;;;;;;5159218;27;20563;-77
2024/02/29 06:10:09;;;;;;;18.50;15.83;;;4.20;99.90;;;;;;5159257;27;20941;-77
2024/02/29 06:12:39;;;;;;;19.73;16.03;;;4.20;99.90;;;;;;5159377;27;20941;-77
2024/02/29 06:15:09;;;;;;;18.67;16.03;;;4.20;99.90;;;;;;5159286;27;20445;-77
2024/02/29 06:17:39;;;;;;;18.77;16.07;;;4.20;99.90;;;;;;5158984;27;20456;-77
2024/02/29 06:20:11;;;;;;;19.70;16.20;;;4.30;99.90;;;;;;5159278;27;20483;-77
2024/02/29 06:22:40;;;;;;;18.27;16.13;;;4.30;99.90;;;;;;5159199;27;20444;-77
2024/02/29 06:25:10;;;;;;;18.63;15.97;;;4.30;99.90;;;;;;5159140;27;20957;-76
2024/02/29 06:27:39;;;;;;;16.17;14.47;;;4.30;99.90;;;;;;5158843;27;20981;-76
2024/02/29 06:30:09;;;;;;;15.77;13.60;;;4.30;99.90;;;;;;5158984;27;20443;-77
2024/02/29 06:32:40;;;;;;;17.73;15.50;;;4.40;99.90;;;;;;5159022;27;20455;-76
2024/02/29 06:35:11;;;;;;;18.77;15.30;;;4.40;99.90;;;;;;5159575;27;20436;-77
2024/02/29 06:37:41;;;;;;;18.73;15.73;;;4.40;99.90;;;;;;5159279;27;20559;-77
2024/02/29 06:40:12;;;;;;;19.07;15.80;;;4.40;99.90;;;;;;5178016;27;20500;-77
2024/02/29 06:42:42;;;;;;;19.30;15.57;;;4.40;99.90;;;;;;5159296;27;20440;-77
2024/02/29 06:45:10;;;;;;;18.73;15.53;;;4.50;99.90;;;;;;5158900;27;20539;-76
2024/02/29 06:47:41;;;;;;;17.50;13.90;;;4.50;99.90;;;;;;5158774;27;20456;-76
2024/02/29 06:50:12;;;;;;;18.87;14.53;;;4.50;99.90;;;;;;5158594;27;20468;-76
2024/02/29 06:52:41;;;;;;;19.23;17.13;;;4.50;99.90;;;;;;5158499;27;20433;-76
2024/02/29 06:55:10;;;;;;;23.27;17.30;;;4.60;99.90;;;;;;5177115;27;20444;-76
2024/02/29 06:57:39;;;;;;;20.90;15.80;;;4.60;99.90;;;;;;5158315;27;20466;-76
2024/02/29 07:00:09;;;;;;;16.80;15.10;;;4.60;99.90;;;;;;5158285;27;20460;-76
2024/02/29 07:02:38;;;;;;;19.17;15.40;;;4.70;99.90;;;;;;5158592;27;20458;-77
2024/02/29 07:05:09;;;;;;;17.00;13.90;;;4.70;99.90;;;;;;5158238;27;20456;-77
2024/02/29 07:07:39;;;;;;;16.80;15.10;;;4.80;99.90;;;;;;5158271;27;20464;-77
2024/02/29 07:10:09;;;;;;;17.33;15.47;;;4.80;99.90;;;;;;5158266;27;20489;-77
2024/02/29 07:12:37;;;;;;;16.20;14.50;;;4.80;99.90;;;;;;5176870;27;20433;-77
2024/02/29 07:15:07;;;;;;;18.97;16.40;;;4.90;99.90;;;;;;5158283;27;20540;-77
2024/02/29 07:17:35;;;;;;;17.53;14.87;;;4.90;99.90;;;;;;5158007;27;20579;-77
2024/02/29 07:20:05;;;;;;;15.57;13.53;;;5.00;99.90;;;;;;5176603;27;20468;-76
2024/02/29 07:22:33;;;;;;;18.17;14.20;;;5.00;99.90;;;;;;5157923;27;20443;-77
2024/02/29 07:25:07;;;;;;;17.00;14.47;;;5.00;99.90;;;;;;5157831;27;20454;-77
2024/02/29 07:27:37;;;;;;;17.57;15.70;;;5.10;99.90;;;;;;5157598;27;20504;-77
2024/02/29 07:30:08;;;;;;;17.10;15.30;;;5.10;99.90;;;;;;5158013;27;20438;-76
2024/02/29 07:32:37;;;;;;;18.83;14.70;;;5.20;99.90;;;;;;5157816;27;20808;-76
2024/02/29 07:35:07;;;;;;;17.67;15.90;;;5.20;99.90;;;;;;5157626;27;20448;-77
2024/02/29 07:37:38;;;;;;;17.90;14.57;;;5.20;99.90;;;;;;5157613;27;20568;-76
2024/02/29 07:40:09;;;;;;;15.50;14.00;;;5.30;99.90;;;;;;5157577;27;20838;-77
2024/02/29 07:42:38;;;;;;;19.30;16.07;;;5.30;99.90;;;;;;5157614;27;20436;-77
2024/02/29 07:45:08;;;;;;;16.63;14.93;;;5.40;99.90;;;;;;5176547;27;20428;-76
2024/02/29 07:47:39;;;;;;;16.60;14.90;;;5.40;99.90;;;;;;5157545;27;20501;-77
2024/02/29 07:50:09;;;;;;;15.17;13.57;;;5.50;99.90;;;;;;5157413;27;20933;-77
2024/02/29 07:52:38;;;;;;;16.27;13.77;;;5.50;99.90;;;;;;5158673;27;20433;-77
2024/02/29 07:55:10;;;;;;;21.87;18.97;;;5.60;99.90;;;;;;5157461;27;20476;-77
2024/02/29 07:57:39;;;;;;;19.97;15.93;;;5.70;99.90;;;;;;5157636;27;20516;-77
2024/02/29 08:00:10;;;;;;;14.87;13.37;;;5.70;99.90;;;;;;5157351;27;20464;-77
2024/02/29 08:02:42;;;;;;;16.30;14.50;;;5.80;99.90;;;;;;5157598;27;20471;-77
2024/02/29 08:05:11;;;;;;;17.50;14.23;;;5.90;99.90;;;;;;5157429;27;20470;-77
2024/02/29 08:07:39;;;;;;;15.47;13.93;;;5.90;99.90;;;;;;5157430;27;20463;-77
2024/02/29 08:10:15;;;;;;;15.53;14.10;;;6.00;99.90;;;;;;5157282;27;20448;-76
2024/02/29 08:12:45;;;;;;;15.03;13.17;;;6.10;99.90;;;;;;5157414;27;20440;-77
2024/02/29 08:15:15;;;;;;;13.63;12.33;;;6.20;99.90;;;;;;5157403;27;20484;-76
2024/02/29 08:17:43;;;;;;;13.63;12.27;;;6.30;99.90;;;;;;5157358;27;20483;-77
2024/02/29 08:20:12;;;;;;;15.50;13.87;;;6.40;99.90;;;;;;5157151;27;20472;-77
2024/02/29 08:22:40;;;;;;;13.73;12.53;;;6.40;99.90;;;;;;5157296;27;20801;-77
2024/02/29 08:25:10;;;;;;;14.00;12.60;;;6.50;99.90;;;;;;5157303;27;20454;-77
2024/02/29 08:27:39;;;;;;;16.63;13.60;;;6.60;99.90;;;;;;5157165;27;20481;-77
2024/02/29 08:30:10;;;;;;;15.77;12.63;;;6.70;99.90;;;;;;5157282;27;20448;-77
2024/02/29 08:32:39;;;;;;;14.77;13.23;;;6.70;99.90;;;;;;5176147;27;20428;-77
2024/02/29 08:35:08;;;;;;;18.27;16.27;;;6.80;99.90;;;;;;5157259;27;20446;-77
2024/02/29 08:37:37;;;;;;;13.27;12.03;;;6.90;99.90;;;;;;5157139;27;20472;-77
2024/02/29 08:40:07;;;;;;;13.90;12.50;;;7.00;99.90;;;;;;5157234;27;20457;-77
2024/02/29 08:42:37;;;;;;;13.80;12.50;;;7.10;99.90;;;;;;5157454;27;20435;-76
2024/02/29 08:45:08;;;;;;;13.40;12.03;;;7.10;99.90;;;;;;5158488;27;20494;-77
2024/02/29 08:47:37;;;;;;;14.80;12.07;;;7.20;99.90;;;;;;5175941;27;20450;-78
2024/02/29 08:50:07;;;;;;;13.47;12.13;;;7.20;99.90;;;;;;5176319;27;20446;-77
2024/02/29 08:52:36;;;;;;;12.40;11.20;;;7.30;99.90;;;;;;5157936;27;20442;-78
2024/02/29 08:55:05;;;;;;;12.93;11.67;;;7.40;99.90;;;;;;5177842;27;20435;-77
2024/02/29 08:57:34;;;;;;;12.57;11.27;;;7.40;99.90;;;;;;5175766;27;20459;-76
2024/02/29 09:00:05;;;;;;;10.70;9.80;;;7.50;99.90;;;;;;5156611;27;20504;-76
2024/02/29 09:02:34;;;;;;;12.80;11.60;;;7.50;99.90;;;;;;5156947;27;20447;-76
2024/02/29 09:05:03;;;;;;;12.50;11.20;;;7.60;99.90;;;;;;5157466;27;20441;-76
2024/02/29 09:07:31;;;;;;;12.70;11.47;;;7.60;99.90;;;;;;5158738;27;20457;-76
2024/02/29 09:10:00;;;;;;;11.50;10.30;;;7.70;99.90;;;;;;5161306;27;20964;-76
2024/02/29 09:12:28;;;;;;;12.00;10.80;;;7.70;99.90;;;;;;5161248;27;20943;-76
2024/02/29 09:14:57;;;;;;;11.73;10.63;;;7.70;99.90;;;;;;5161135;27;20548;-76
2024/02/29 09:17:27;;;;;;;13.17;11.80;;;7.80;99.90;;;;;;5160620;27;20563;-76
2024/02/29 09:19:56;;;;;;;11.37;10.27;;;7.80;99.90;;;;;;5160367;27;20471;-76
2024/02/29 09:22:25;;;;;;;11.00;9.77;;;7.90;99.90;;;;;;5162317;27;20780;-78
2024/02/29 09:24:54;;;;;;;11.63;10.43;;;7.90;99.90;;;;;;5180766;27;20438;-78
2024/02/29 09:27:23;;;;;;;10.80;9.67;;;7.90;99.90;;;;;;5162946;27;20478;-77
2024/02/29 09:29:51;;;;;;;10.37;9.43;;;8.00;99.90;;;;;;5162720;27;20443;-77
2024/02/29 09:32:20;;;;;;;10.67;9.57;;;8.00;99.90;;;;;;5162326;27;20451;-76
2024/02/29 09:34:50;;;;;;;10.60;9.60;;;8.10;99.90;;;;;;5160970;27;20434;-75
2024/02/29 09:37:20;;;;;;;10.03;9.13;;;8.20;99.90;;;;;;5179251;27;20449;-78
2024/02/29 09:39:48;;;;;;;10.30;9.30;;;8.20;99.90;;;;;;5163202;27;20521;-78
2024/02/29 09:42:17;;;;;;;9.67;8.77;;;8.30;99.90;;;;;;5160220;27;20455;-76
2024/02/29 09:44:50;;;;;;;10.67;9.57;;;8.30;99.90;;;;;;5160105;27;20444;-76
2024/02/29 09:47:20;;;;;;;9.60;8.67;;;8.40;99.90;;;;;;5179455;27;20472;-78
2024/02/29 09:49:51;;;;;;;9.57;8.67;;;8.40;99.90;;;;;;5161764;27;20440;-77
2024/02/29 09:52:31;;;;;;;9.00;8.10;;;8.50;99.90;;;;;;5180237;27;20420;-77
2024/02/29 09:55:04;;;;;;;9.00;7.83;;;8.50;99.90;;;;;;5161883;27;20858;-77
2024/02/29 09:57:34;;;;;;;10.37;8.43;;;8.50;99.90;;;;;;5178981;27;20463;-77
2024/02/29 10:00:03;;;;;;;8.93;8.13;;;8.60;99.90;;;;;;5160067;27;21040;-77
2024/02/29 10:02:33;;;;;;;9.80;8.90;;;8.60;99.90;;;;;;5179357;27;20454;-78
2024/02/29 10:05:05;;;;;;;10.37;8.07;;;8.70;99.90;;;;;;5161321;27;20937;-78
2024/02/29 10:07:40;;;;;;;9.20;8.30;;;8.70;99.90;;;;;;5162114;27;20460;-78
2024/02/29 10:10:12;;;;;;;9.10;8.23;;;8.70;99.90;;;;;;5162139;27;20444;-77
2024/02/29 10:12:43;;;;;;;9.30;8.33;;;8.80;99.90;;;;;;5160977;27;20447;-76
2024/02/29 10:15:12;;;;;;;8.10;7.07;;;8.80;99.90;;;;;;5160533;27;20465;-76
2024/02/29 10:17:41;;;;;;;10.37;8.73;;;8.90;99.90;;;;;;5161713;27;20471;-75
2024/02/29 10:20:12;;;;;;;9.10;8.20;;;8.90;99.90;;;;;;5159170;27;20521;-77
2024/02/29 10:22:43;;;;;;;8.67;7.63;;;9.00;99.90;;;;;;5161323;27;20488;-78
2024/02/29 10:25:14;;;;;;;8.67;7.80;;;9.00;99.90;;;;;;5164037;27;20445;-78
2024/02/29 10:27:43;;;;;;;9.40;7.30;;;9.00;99.90;;;;;;5180486;27;20460;-78
2024/02/29 10:30:13;;;;;;;7.93;7.13;;;9.10;99.90;;;;;;5180384;27;20440;-76
2024/02/29 10:32:42;;;;;;;7.73;6.97;;;9.10;99.90;;;;;;5160741;27;20505;-77
2024/02/29 10:35:20;;;;;;;8.53;7.63;;;9.10;99.90;;;;;;5160343;27;20440;-77
2024/02/29 10:37:49;;;;;;;7.43;6.73;;;9.20;99.90;;;;;;5181385;27;20580;-77
2024/02/29 10:40:18;;;;;;;7.77;6.97;;;9.20;99.90;;;;;;5160117;27;20456;-76
2024/02/29 10:42:51;;;;;;;7.33;6.30;;;9.30;99.90;;;;;;5160391;27;20456;-78
2024/02/29 10:45:22;;;;;;;9.20;6.73;;;9.30;99.90;;;;;;5178434;27;20417;-75
2024/02/29 10:48:02;;;;;;;7.80;6.70;;;9.40;99.90;;;;;;5159144;27;20460;-76
2024/02/29 10:50:38;;;;;;;7.60;6.90;;;9.40;99.90;;;;;;5178078;27;20833;-75
2024/02/29 10:53:17;;;;;;;6.73;6.00;;;9.40;99.90;;;;;;5179438;27;20421;-76
2024/02/29 10:55:58;;;;;;;7.67;6.97;;;9.50;99.90;;;;;;5159518;27;20496;-78
2024/02/29 10:58:30;;;;;;;6.93;6.27;;;9.50;99.90;;;;;;5177799;27;20859;-76
2024/02/29 11:01:00;;;;;;;7.00;6.30;;;9.60;99.90;;;;;;5158960;27;20559;-76
2024/02/29 11:03:29;;;;;;;6.93;6.23;;;9.60;99.90;;;;;;5158922;27;20969;-77
2024/02/29 11:06:00;;;;;;;7.33;6.30;;;9.70;99.90;;;;;;5159305;27;20480;-78
2024/02/29 11:08:29;;;;;;;6.43;5.83;;;9.70;99.90;;;;;;5178711;27;20466;-75
2024/02/29 11:10:58;;;;;;;5.80;5.30;;;9.80;99.90;;;;;;5162822;27;20449;-78
2024/02/29 11:13:28;;;;;;;7.27;5.80;;;9.90;99.90;;;;;;5160738;27;20444;-76
2024/02/29 11:15:57;;;;;;;6.20;5.60;;;9.90;99.90;;;;;;5159213;27;20447;-77
2024/02/29 11:18:27;;;;;;;5.83;5.27;;;10.00;99.90;;;;;;5159362;27;21045;-76
2024/02/29 11:21:05;;;;;;;5.77;5.17;;;10.10;99.90;;;;;;5157994;27;20483;-76
2024/02/29 11:23:39;;;;;;;6.00;5.40;;;10.20;99.90;;;;;;5158089;27;20441;-75
2024/02/29 11:26:10;;;;;;;5.70;5.10;;;10.20;99.90;;;;;;5162679;27;20452;-78
2024/02/29 11:28:40;;;;;;;6.50;5.90;;;10.30;99.90;;;;;;5158729;27;21092;-77
2024/02/29 11:31:16;;;;;;;6.23;5.33;;;10.30;99.90;;;;;;5177601;27;20477;-76
2024/02/29 11:33:46;;;;;;;6.23;5.20;;;10.40;99.90;;;;;;5159274;27;20437;-76
2024/02/29 11:36:17;;;;;;;5.07;4.57;;;10.50;99.90;;;;;;5158995;27;20441;-76
2024/02/29 11:38:48;;;;;;;5.70;5.00;;;10.60;99.90;;;;;;5177710;27;20963;-76
2024/02/29 11:41:18;;;;;;;5.53;5.00;;;10.60;99.90;;;;;;5158287;27;21025;-76
2024/02/29 11:43:49;;;;;;;5.23;4.73;;;10.70;99.90;;;;;;5177517;27;20943;-77
2024/02/29 11:46:20;;;;;;;5.57;5.00;;;10.80;99.90;;;;;;5179221;27;20414;-78
2024/02/29 11:48:50;;;;;;;6.83;5.23;;;10.90;99.90;;;;;;5159227;27;20517;-77
2024/02/29 11:51:24;;;;;;;5.43;4.80;;;11.00;99.90;;;;;;5158436;27;20508;-77
2024/02/29 11:53:56;;;;;;;6.50;4.77;;;11.00;99.90;;;;;;5158933;27;20467;-77
2024/02/29 11:56:24;;;;;;;4.80;4.13;;;11.10;99.90;;;;;;5159567;27;20838;-77
2024/02/29 11:58:54;;;;;;;7.27;5.47;;;11.10;99.90;;;;;;5158593;27;20471;-77
2024/02/29 12:01:24;;;;;;;4.80;4.40;;;11.20;99.90;;;;;;5157794;27;20965;-77
2024/02/29 12:03:53;;;;;;;5.87;4.50;;;11.20;99.90;;;;;;5176874;27;20443;-76
2024/02/29 12:06:25;;;;;;;4.83;4.40;;;11.30;99.90;;;;;;5159477;27;20445;-78
2024/02/29 12:08:54;;;;;;;7.53;4.70;;;11.40;99.90;;;;;;5158265;27;20466;-76
2024/02/29 12:11:25;;;;;;;5.40;4.20;;;11.40;99.90;;;;;;5157516;27;20481;-76
2024/02/29 12:13:56;;;;;;;4.73;4.33;;;11.50;99.90;;;;;;5160009;27;20520;-77
2024/02/29 12:16:26;;;;;;;5.27;4.00;;;11.60;99.90;;;;;;5158692;27;20433;-77
2024/02/29 12:18:55;;;;;;;4.17;3.77;;;11.60;99.90;;;;;;5176754;27;21003;-77
2024/02/29 12:21:29;;;;;;;5.03;4.00;;;11.60;99.90;;;;;;5157964;27;20434;-77
2024/02/29 12:23:57;;;;;;;4.67;4.27;;;11.70;99.90;;;;;;5157202;27;20190;-76
2024/02/29 12:26:27;;;;;;;5.37;4.87;;;11.70;99.90;;;;;;5157257;27;20436;-77
2024/02/29 12:28:57;;;;;;;4.30;3.90;;;11.80;99.90;;;;;;5157013;27;20468;-77
2024/02/29 12:31:28;;;;;;;4.47;4.07;;;11.80;99.90;;;;;;5157760;27;20445;-78
2024/02/29 12:34:00;;;;;;;4.20;3.60;;;11.80;99.90;;;;;;5178674;27;20455;-79
2024/02/29 12:36:33;;;;;;;4.80;4.10;;;11.90;99.90;;;;;;5157420;27;20516;-77
2024/02/29 12:39:02;;;;;;;4.63;4.23;;;11.90;99.90;;;;;;5156858;27;20481;-77
2024/02/29 12:41:32;;;;;;;4.67;3.90;;;12.00;99.90;;;;;;5157563;27;20465;-76
2024/02/29 12:44:04;;;;;;;7.90;4.17;;;12.00;99.90;;;;;;5161850;27;20452;-77
2024/02/29 12:46:36;;;;;;;5.17;3.97;;;12.10;99.90;;;;;;5162852;27;20447;-78
2024/02/29 12:49:05;;;;;;;4.70;3.60;;;12.10;99.90;;;;;;5162361;27;20444;-77
2024/02/29 12:51:36;;;;;;;4.33;3.80;;;12.20;99.90;;;;;;5162191;27;20930;-77